Time;durP1;ratioP1;P1;durP2;ratioP2;P2;SDS_P1;SDS_P2;PMS_P1;PMS_P2;Temp;Humidity;BMP_temperature;BMP_pressure;BME280_temperature;BME280_humidity;BME280_pressure;Samples;Min_cycle;Max_cycle;Signal;HPM_P1;HPM_P2
2021/08/16 00:00:24;;;;;;;2.97;1.30;;;23.60;59.30;;;;;;4915823;29;20095;-77
2021/08/16 00:02:50;;;;;;;3.53;1.50;;;23.60;59.30;;;;;;4916328;29;20036;-77
2021/08/16 00:05:16;;;;;;;2.70;1.20;;;23.60;59.40;;;;;;4900233;29;20128;-77
2021/08/16 00:07:43;;;;;;;3.42;1.48;;;23.50;59.30;;;;;;4915492;29;20036;-77
2021/08/16 00:10:11;;;;;;;2.35;1.33;;;23.50;59.40;;;;;;4917236;29;20044;-78
2021/08/16 00:12:37;;;;;;;3.97;1.50;;;23.50;59.40;;;;;;4900070;29;20040;-77
2021/08/16 00:15:03;;;;;;;2.45;1.30;;;23.50;59.50;;;;;;4915921;29;20084;-78
2021/08/16 00:17:29;;;;;;;2.65;1.35;;;23.40;59.40;;;;;;4916749;29;20048;-78
2021/08/16 00:19:55;;;;;;;3.45;1.23;;;23.40;59.50;;;;;;4915536;29;20078;-77
2021/08/16 00:22:20;;;;;;;2.75;1.48;;;23.40;59.60;;;;;;4900419;29;20033;-77
2021/08/16 00:24:47;;;;;;;2.58;1.30;;;23.40;59.60;;;;;;4916037;29;20165;-78
2021/08/16 00:27:13;;;;;;;2.30;1.33;;;23.40;59.60;;;;;;4900216;29;20080;-77
2021/08/16 00:29:39;;;;;;;2.55;1.25;;;23.30;59.70;;;;;;4900232;29;20075;-77
2021/08/16 00:32:05;;;;;;;3.00;1.30;;;23.30;59.60;;;;;;4915953;29;20044;-77
2021/08/16 00:34:32;;;;;;;2.80;1.30;;;23.30;59.60;;;;;;4900846;29;20055;-77
2021/08/16 00:36:58;;;;;;;3.70;1.50;;;23.20;59.60;;;;;;4915964;29;20393;-77
2021/08/16 00:39:23;;;;;;;3.83;1.30;;;23.20;59.60;;;;;;4931469;29;20036;-77
2021/08/16 00:41:49;;;;;;;3.40;1.60;;;23.20;59.70;;;;;;4900107;29;20123;-77
2021/08/16 00:44:16;;;;;;;3.05;1.35;;;23.10;59.70;;;;;;4918090;29;20541;-77
2021/08/16 00:46:42;;;;;;;2.47;1.40;;;23.10;59.70;;;;;;4920028;29;20087;-78
2021/08/16 00:49:08;;;;;;;2.33;1.20;;;23.10;59.80;;;;;;4935073;29;20064;-79
2021/08/16 00:51:36;;;;;;;2.50;1.30;;;23.10;59.80;;;;;;4904224;29;20028;-77
2021/08/16 00:54:04;;;;;;;2.70;1.30;;;23.10;59.80;;;;;;4904061;29;20066;-77
2021/08/16 00:56:31;;;;;;;2.33;1.20;;;23.10;59.90;;;;;;4919681;29;20350;-77
2021/08/16 00:58:58;;;;;;;2.47;1.30;;;23.00;59.80;;;;;;4919836;29;20083;-78
2021/08/16 01:01:25;;;;;;;3.20;1.50;;;23.00;59.80;;;;;;4920252;29;20020;-78
2021/08/16 01:03:51;;;;;;;3.47;1.50;;;23.00;59.90;;;;;;4902969;29;20038;-77
2021/08/16 01:06:17;;;;;;;4.10;1.55;;;23.00;59.90;;;;;;4919358;29;20036;-77
2021/08/16 01:08:47;;;;;;;2.80;1.40;;;22.90;59.90;;;;;;4903686;29;20032;-78
2021/08/16 01:11:14;;;;;;;3.53;1.17;;;22.90;59.90;;;;;;4919893;29;20119;-77
2021/08/16 01:13:40;;;;;;;3.30;1.50;;;22.90;60.00;;;;;;4902942;29;20453;-77
2021/08/16 01:16:07;;;;;;;3.20;1.40;;;22.90;60.20;;;;;;4903226;29;20044;-78
2021/08/16 01:18:33;;;;;;;3.42;1.55;;;22.90;60.00;;;;;;4902843;29;20113;-77
2021/08/16 01:21:00;;;;;;;4.20;1.60;;;22.80;60.00;;;;;;4918883;29;20088;-77
2021/08/16 01:23:26;;;;;;;3.55;1.30;;;22.80;60.00;;;;;;4918141;29;20033;-77
2021/08/16 01:25:53;;;;;;;3.03;1.23;;;22.80;60.10;;;;;;4919335;29;20052;-77
2021/08/16 01:28:21;;;;;;;3.50;1.35;;;22.80;60.10;;;;;;4919121;29;20039;-78
2021/08/16 01:30:51;;;;;;;2.85;1.38;;;22.80;60.20;;;;;;4902628;29;20044;-78
2021/08/16 01:33:17;;;;;;;4.35;1.77;;;22.70;60.20;;;;;;4918606;29;20064;-77
2021/08/16 01:35:43;;;;;;;3.70;1.50;;;22.70;60.20;;;;;;4918195;29;20082;-78
2021/08/16 01:38:09;;;;;;;3.30;1.33;;;22.70;60.20;;;;;;4918141;29;20040;-78
2021/08/16 01:40:35;;;;;;;4.07;1.33;;;22.70;60.20;;;;;;4902413;29;20035;-78
2021/08/16 01:43:01;;;;;;;2.72;1.30;;;22.70;60.30;;;;;;4919377;29;20471;-77
2021/08/16 01:45:26;;;;;;;2.95;1.42;;;22.60;60.30;;;;;;4917891;29;20033;-78
2021/08/16 01:47:52;;;;;;;2.90;1.30;;;22.60;60.40;;;;;;4918609;29;20036;-78
2021/08/16 01:50:18;;;;;;;2.63;1.20;;;22.60;60.40;;;;;;4902165;29;20037;-78
2021/08/16 01:52:43;;;;;;;3.58;1.35;;;22.60;60.40;;;;;;4918065;29;20070;-77
2021/08/16 01:55:10;;;;;;;3.70;1.55;;;22.50;60.40;;;;;;4918098;29;20110;-78
2021/08/16 01:57:36;;;;;;;3.33;1.40;;;22.50;60.40;;;;;;4918114;29;20059;-77
2021/08/16 02:00:02;;;;;;;2.70;1.20;;;22.50;60.40;;;;;;4902205;29;20477;-77
2021/08/16 02:02:37;;;;;;;2.08;1.33;;;22.50;60.50;;;;;;4917730;29;20448;-77
2021/08/16 02:05:03;;;;;;;4.40;1.25;;;22.50;60.50;;;;;;4902043;29;20123;-77
2021/08/16 02:07:30;;;;;;;2.60;1.30;;;22.40;60.50;;;;;;4917532;29;20485;-77
2021/08/16 02:09:56;;;;;;;3.72;1.42;;;22.50;60.60;;;;;;4917783;29;20366;-77
2021/08/16 02:12:22;;;;;;;2.08;1.20;;;22.40;60.60;;;;;;4918904;29;20038;-77
2021/08/16 02:14:47;;;;;;;3.08;1.40;;;22.40;60.60;;;;;;4901767;29;20032;-78
2021/08/16 02:17:13;;;;;;;3.05;1.35;;;22.40;60.60;;;;;;4917578;29;20032;-77
2021/08/16 02:19:39;;;;;;;4.70;1.45;;;22.40;60.70;;;;;;4901536;29;20040;-78
2021/08/16 02:22:04;;;;;;;2.95;1.42;;;22.40;61.30;;;;;;4901573;29;20036;-78
2021/08/16 02:24:30;;;;;;;2.60;1.13;;;22.40;60.70;;;;;;4917356;29;20036;-77
2021/08/16 02:26:56;;;;;;;3.33;1.30;;;22.30;60.70;;;;;;4902195;29;20056;-78
2021/08/16 02:29:22;;;;;;;2.67;1.33;;;22.30;60.70;;;;;;4902268;29;20350;-77
2021/08/16 02:31:47;;;;;;;3.15;1.23;;;22.30;60.70;;;;;;4901410;29;20036;-77
2021/08/16 02:34:13;;;;;;;2.67;1.40;;;22.30;60.80;;;;;;4901336;29;20044;-78
2021/08/16 02:36:39;;;;;;;3.30;1.38;;;22.30;60.80;;;;;;4917203;29;20359;-77
2021/08/16 02:39:05;;;;;;;2.95;1.38;;;22.20;60.80;;;;;;4916918;29;20064;-77
2021/08/16 02:41:31;;;;;;;3.08;1.45;;;22.30;60.90;;;;;;4916855;29;20028;-77
2021/08/16 02:43:57;;;;;;;4.57;1.63;;;22.20;60.80;;;;;;4917757;29;20496;-77
2021/08/16 02:46:23;;;;;;;3.45;1.40;;;22.20;60.90;;;;;;4901386;29;20028;-77
2021/08/16 02:48:48;;;;;;;4.72;1.48;;;22.20;60.90;;;;;;4917229;29;20028;-78
2021/08/16 02:51:14;;;;;;;3.42;1.80;;;22.20;60.90;;;;;;4917219;29;20051;-78
2021/08/16 02:53:40;;;;;;;4.18;1.50;;;22.20;60.90;;;;;;4917127;29;20040;-78
2021/08/16 02:56:06;;;;;;;3.47;1.25;;;22.20;61.00;;;;;;4901448;29;20351;-77
2021/08/16 02:58:32;;;;;;;3.25;1.20;;;22.20;61.00;;;;;;4901360;29;20039;-77
2021/08/16 03:00:57;;;;;;;4.63;1.90;;;22.10;61.00;;;;;;4916966;29;20485;-77
2021/08/16 03:03:23;;;;;;;5.43;1.85;;;22.10;61.00;;;;;;4900957;29;20047;-77
2021/08/16 03:05:49;;;;;;;2.75;1.27;;;22.10;61.00;;;;;;4916502;29;20095;-78
2021/08/16 03:08:14;;;;;;;3.60;1.65;;;22.10;61.00;;;;;;4917911;29;20063;-78
2021/08/16 03:10:41;;;;;;;2.90;1.23;;;22.10;61.10;;;;;;4901321;29;20145;-78
2021/08/16 03:13:06;;;;;;;5.15;1.80;;;22.10;61.10;;;;;;4917531;29;20084;-77
2021/08/16 03:15:32;;;;;;;3.75;1.77;;;22.10;61.20;;;;;;4900745;29;20032;-78
2021/08/16 03:18:00;;;;;;;2.97;1.23;;;22.10;61.20;;;;;;4916717;29;20060;-78
2021/08/16 03:20:26;;;;;;;2.92;1.27;;;22.00;61.20;;;;;;4916138;29;20032;-77
2021/08/16 03:22:52;;;;;;;2.60;1.23;;;22.00;61.50;;;;;;4900913;29;20036;-78
2021/08/16 03:25:18;;;;;;;3.88;1.70;;;22.00;61.20;;;;;;4917273;29;21877;-77
2021/08/16 03:27:44;;;;;;;3.42;1.38;;;22.00;61.30;;;;;;4916727;29;20036;-77
2021/08/16 03:30:11;;;;;;;3.28;1.60;;;22.00;61.30;;;;;;4917461;29;20039;-77
2021/08/16 03:32:37;;;;;;;2.20;1.23;;;21.90;61.30;;;;;;4915590;29;20052;-77
2021/08/16 03:35:03;;;;;;;2.67;1.38;;;21.90;61.30;;;;;;4917082;29;20453;-77
2021/08/16 03:37:33;;;;;;;1.63;1.05;;;21.90;61.40;;;;;;4900950;29;20040;-78
2021/08/16 03:39:59;;;;;;;2.80;1.27;;;21.90;61.40;;;;;;4916464;29;20032;-78
2021/08/16 03:42:25;;;;;;;4.05;1.60;;;21.90;61.40;;;;;;4900493;29;20119;-78
2021/08/16 03:44:51;;;;;;;2.30;1.27;;;21.90;61.40;;;;;;4917705;29;20059;-77
2021/08/16 03:47:17;;;;;;;3.30;1.33;;;21.90;61.50;;;;;;4916154;29;20040;-77
2021/08/16 03:49:43;;;;;;;3.88;1.30;;;21.90;61.60;;;;;;4900541;29;20043;-77
2021/08/16 03:52:09;;;;;;;2.53;1.38;;;21.80;62.20;;;;;;4916411;29;20028;-78
2021/08/16 03:54:35;;;;;;;3.20;1.50;;;21.80;61.50;;;;;;4917524;29;20469;-78
2021/08/16 03:57:01;;;;;;;3.42;1.38;;;21.80;61.60;;;;;;4900245;29;20041;-77
2021/08/16 03:59:27;;;;;;;2.72;1.30;;;21.80;61.60;;;;;;4901174;29;20096;-77
2021/08/16 04:01:52;;;;;;;3.47;1.20;;;21.80;61.60;;;;;;4900249;29;20066;-77
2021/08/16 04:04:18;;;;;;;2.00;1.13;;;21.80;61.60;;;;;;4900200;29;20042;-78
2021/08/16 04:06:44;;;;;;;2.28;1.30;;;21.80;61.70;;;;;;4900158;29;20127;-78
2021/08/16 04:09:11;;;;;;;3.00;1.25;;;21.80;61.70;;;;;;4916823;29;20028;-78
2021/08/16 04:11:38;;;;;;;2.08;1.15;;;21.70;61.70;;;;;;4916928;29;20040;-77
2021/08/16 04:14:04;;;;;;;2.78;1.30;;;21.80;61.80;;;;;;4917188;29;20067;-77
2021/08/16 04:16:30;;;;;;;4.22;1.70;;;21.70;61.80;;;;;;4916195;29;20044;-78
2021/08/16 04:18:56;;;;;;;3.17;1.30;;;21.70;61.80;;;;;;4902157;29;20032;-78
2021/08/16 04:21:22;;;;;;;1.77;1.20;;;21.70;61.90;;;;;;4903864;29;20036;-76
2021/08/16 04:23:48;;;;;;;3.00;1.38;;;21.70;61.80;;;;;;4904024;29;20027;-77
2021/08/16 04:26:14;;;;;;;3.83;1.40;;;21.70;61.90;;;;;;4919175;29;20107;-77
2021/08/16 04:28:40;;;;;;;3.13;1.63;;;21.70;61.90;;;;;;4920311;29;20036;-77
2021/08/16 04:31:06;;;;;;;2.88;1.30;;;21.70;61.90;;;;;;4919189;29;20092;-78
2021/08/16 04:33:32;;;;;;;3.03;1.17;;;21.60;61.90;;;;;;4919642;29;20071;-77
2021/08/16 04:35:58;;;;;;;2.08;1.20;;;21.70;61.90;;;;;;4919710;29;20068;-77
2021/08/16 04:38:23;;;;;;;2.50;1.23;;;21.60;61.90;;;;;;4919561;29;20501;-77
2021/08/16 04:40:53;;;;;;;2.53;1.38;;;21.60;61.90;;;;;;4919043;29;20056;-77
2021/08/16 04:43:20;;;;;;;3.28;1.25;;;21.60;62.00;;;;;;4903789;29;20486;-78
2021/08/16 04:45:46;;;;;;;3.15;1.30;;;21.60;62.00;;;;;;4903676;29;20470;-77
2021/08/16 04:48:12;;;;;;;4.72;1.67;;;21.60;62.00;;;;;;4919103;29;20119;-78
2021/08/16 04:50:38;;;;;;;4.22;1.40;;;21.60;62.00;;;;;;4903384;29;20118;-77
2021/08/16 04:53:04;;;;;;;4.13;1.55;;;21.50;62.00;;;;;;4919007;29;20127;-78
2021/08/16 04:55:30;;;;;;;2.92;1.30;;;21.60;62.00;;;;;;4918927;29;20457;-79
2021/08/16 04:57:55;;;;;;;3.38;1.50;;;21.60;62.10;;;;;;4903184;29;20051;-77
2021/08/16 05:00:25;;;;;;;2.38;1.27;;;21.50;62.00;;;;;;4918769;29;20123;-77
2021/08/16 05:02:54;;;;;;;3.15;1.50;;;21.50;62.10;;;;;;4903753;29;20091;-77
2021/08/16 05:05:24;;;;;;;2.42;1.27;;;21.50;62.10;;;;;;4915293;29;20400;-78
2021/08/16 05:07:52;;;;;;;2.72;1.42;;;21.50;62.10;;;;;;4920126;29;20028;-78
2021/08/16 05:10:19;;;;;;;3.55;1.70;;;21.50;62.20;;;;;;4920136;29;20032;-78
2021/08/16 05:12:46;;;;;;;2.35;1.40;;;21.50;62.20;;;;;;4918721;29;20043;-77
2021/08/16 05:15:12;;;;;;;4.00;1.33;;;21.50;62.30;;;;;;4903205;29;20040;-78
2021/08/16 05:17:38;;;;;;;3.53;1.52;;;21.50;62.30;;;;;;4934371;29;20083;-77
2021/08/16 05:20:06;;;;;;;3.75;1.45;;;21.40;62.20;;;;;;4902541;29;20405;-77
2021/08/16 05:22:33;;;;;;;2.88;1.40;;;21.40;62.30;;;;;;4902701;29;20114;-78
2021/08/16 05:24:58;;;;;;;2.78;1.35;;;21.50;62.40;;;;;;4918041;29;20063;-79
2021/08/16 05:27:24;;;;;;;3.55;1.60;;;21.50;62.40;;;;;;4902968;29;20063;-78
2021/08/16 05:29:50;;;;;;;2.83;1.40;;;21.50;62.40;;;;;;4902780;29;20036;-77
2021/08/16 05:32:17;;;;;;;2.22;1.40;;;21.50;62.50;;;;;;4918625;29;20107;-77
2021/08/16 05:34:43;;;;;;;3.25;1.58;;;21.40;62.40;;;;;;4918508;29;20052;-77
2021/08/16 05:37:09;;;;;;;2.08;1.40;;;21.40;62.40;;;;;;4902934;29;20060;-77
2021/08/16 05:39:35;;;;;;;3.10;1.65;;;21.40;62.50;;;;;;4918570;29;20075;-77
2021/08/16 05:42:02;;;;;;;2.50;1.58;;;21.40;62.50;;;;;;4902660;29;20035;-77
2021/08/16 05:44:28;;;;;;;2.85;1.52;;;21.40;62.50;;;;;;4902679;29;20433;-78
2021/08/16 05:46:54;;;;;;;3.75;1.80;;;21.40;62.60;;;;;;4918156;29;20111;-77
2021/08/16 05:49:20;;;;;;;3.17;1.67;;;21.40;62.60;;;;;;4902199;29;20164;-77
2021/08/16 05:51:46;;;;;;;2.08;1.45;;;21.40;62.60;;;;;;4902239;29;20063;-77
2021/08/16 05:54:12;;;;;;;2.70;1.63;;;21.40;62.70;;;;;;4902341;29;20062;-78
2021/08/16 05:56:38;;;;;;;4.15;2.17;;;21.40;62.70;;;;;;4902224;29;20433;-77
2021/08/16 05:59:03;;;;;;;4.82;2.20;;;21.40;62.80;;;;;;4902393;29;20040;-77
2021/08/16 06:01:33;;;;;;;3.20;2.03;;;21.40;62.70;;;;;;4902821;29;20371;-77
2021/08/16 06:03:59;;;;;;;2.95;1.85;;;21.40;62.80;;;;;;4902994;29;20095;-77
2021/08/16 06:06:25;;;;;;;4.20;2.28;;;21.40;62.80;;;;;;4917718;29;20486;-77
2021/08/16 06:08:51;;;;;;;3.72;1.90;;;21.40;62.80;;;;;;4901905;29;20124;-77
2021/08/16 06:11:16;;;;;;;4.68;2.03;;;21.40;62.90;;;;;;4901960;29;20080;-77
2021/08/16 06:13:42;;;;;;;3.30;2.05;;;21.40;62.90;;;;;;4917711;29;20390;-77
2021/08/16 06:16:08;;;;;;;4.40;2.03;;;21.40;62.90;;;;;;4917480;29;20036;-78
2021/08/16 06:18:33;;;;;;;3.58;2.20;;;21.40;62.90;;;;;;4933289;29;20024;-77
2021/08/16 06:20:59;;;;;;;3.03;2.17;;;21.40;62.90;;;;;;4901493;29;20036;-78
2021/08/16 06:23:25;;;;;;;3.42;2.28;;;21.40;62.90;;;;;;4901728;29;20378;-78
2021/08/16 06:25:50;;;;;;;3.05;2.05;;;21.40;63.00;;;;;;4901723;29;20112;-77
2021/08/16 06:28:16;;;;;;;4.22;2.35;;;21.40;63.00;;;;;;4917555;29;20039;-79
2021/08/16 06:30:42;;;;;;;4.50;2.63;;;21.40;63.00;;;;;;4901433;29;20124;-76
2021/08/16 06:33:07;;;;;;;3.08;2.47;;;21.40;63.20;;;;;;4902378;29;20415;-78
2021/08/16 06:35:36;;;;;;;4.07;2.60;;;21.40;63.10;;;;;;4918305;29;20465;-78
2021/08/16 06:38:02;;;;;;;5.10;2.53;;;21.40;63.10;;;;;;4918546;29;20032;-78
2021/08/16 06:40:28;;;;;;;3.28;2.58;;;21.40;63.10;;;;;;4901663;29;20043;-78
2021/08/16 06:42:54;;;;;;;3.47;2.40;;;21.40;63.10;;;;;;4885260;29;20032;-78
2021/08/16 06:45:19;;;;;;;2.83;2.33;;;21.40;63.10;;;;;;4917829;29;20051;-80
2021/08/16 06:47:45;;;;;;;4.15;2.67;;;21.40;63.10;;;;;;4901446;29;20378;-79
2021/08/16 06:50:11;;;;;;;4.30;2.72;;;21.40;63.10;;;;;;4901883;29;20485;-79
2021/08/16 06:52:37;;;;;;;3.72;2.47;;;21.40;63.10;;;;;;4901428;29;20071;-79
2021/08/16 06:55:03;;;;;;;4.55;2.65;;;21.40;63.20;;;;;;4885801;29;20036;-80
2021/08/16 06:57:29;;;;;;;5.13;2.85;;;21.40;63.20;;;;;;4901168;29;20385;-79
2021/08/16 06:59:55;;;;;;;3.58;2.83;;;21.40;63.20;;;;;;4901795;29;20048;-79
2021/08/16 07:02:21;;;;;;;3.92;2.60;;;21.40;63.30;;;;;;4901324;29;20036;-78
2021/08/16 07:04:47;;;;;;;4.57;2.80;;;21.40;63.30;;;;;;4917466;29;20048;-77
2021/08/16 07:07:13;;;;;;;3.55;2.40;;;21.40;63.30;;;;;;4918400;29;20055;-77
2021/08/16 07:09:38;;;;;;;3.63;2.60;;;21.40;63.30;;;;;;4917269;29;20040;-77
2021/08/16 07:12:05;;;;;;;4.65;2.85;;;21.40;63.30;;;;;;4900739;29;20028;-77
2021/08/16 07:14:30;;;;;;;4.50;2.83;;;21.40;63.40;;;;;;4916316;29;20040;-78
2021/08/16 07:16:56;;;;;;;3.53;2.65;;;21.40;63.40;;;;;;4917215;29;20032;-77
2021/08/16 07:19:22;;;;;;;4.95;2.65;;;21.40;63.40;;;;;;4917606;29;20036;-77
2021/08/16 07:21:48;;;;;;;3.88;2.63;;;21.40;63.50;;;;;;4900684;29;20040;-77
2021/08/16 07:24:15;;;;;;;3.88;2.35;;;21.40;63.50;;;;;;4900910;29;20462;-78
2021/08/16 07:26:41;;;;;;;2.60;2.15;;;21.30;63.50;;;;;;4916163;29;20553;-78
2021/08/16 07:29:06;;;;;;;3.80;2.63;;;21.30;63.40;;;;;;4900339;29;20135;-77
2021/08/16 07:31:32;;;;;;;3.58;2.40;;;21.30;63.50;;;;;;4901272;29;20087;-77
2021/08/16 07:33:58;;;;;;;3.45;2.60;;;21.40;63.50;;;;;;4916258;29;20044;-78
2021/08/16 07:36:24;;;;;;;5.05;2.67;;;21.40;63.60;;;;;;4900867;29;20054;-77
2021/08/16 07:38:49;;;;;;;2.50;2.10;;;21.30;63.60;;;;;;4900477;29;20386;-77
2021/08/16 07:41:15;;;;;;;3.45;2.30;;;21.30;63.60;;;;;;4900891;29;20055;-76
2021/08/16 07:43:41;;;;;;;2.80;2.25;;;21.30;63.70;;;;;;4916236;29;20032;-76
2021/08/16 07:46:06;;;;;;;2.95;2.03;;;21.30;63.70;;;;;;4916083;29;20080;-77
2021/08/16 07:48:32;;;;;;;2.45;1.88;;;21.30;63.70;;;;;;4916155;29;20040;-75
2021/08/16 07:50:58;;;;;;;5.28;2.20;;;21.30;63.80;;;;;;4917090;29;20115;-77
2021/08/16 07:53:24;;;;;;;3.33;2.35;;;21.30;63.80;;;;;;4918739;29;20040;-76
2021/08/16 07:55:49;;;;;;;3.10;1.88;;;21.30;63.90;;;;;;4904427;29;20083;-76
2021/08/16 07:58:15;;;;;;;2.72;2.10;;;21.30;64.50;;;;;;4905130;29;20510;-76
2021/08/16 08:00:41;;;;;;;2.50;1.73;;;21.30;63.90;;;;;;4920218;29;20389;-76
2021/08/16 08:03:06;;;;;;;2.30;1.88;;;21.30;63.90;;;;;;4919827;29;20035;-76
2021/08/16 08:05:32;;;;;;;1.67;1.45;;;21.30;63.90;;;;;;4920067;29;20044;-76
2021/08/16 08:07:59;;;;;;;2.45;1.70;;;21.20;63.90;;;;;;4920450;29;20033;-76
2021/08/16 08:10:24;;;;;;;2.05;1.52;;;21.30;64.10;;;;;;4903908;29;20046;-77
2021/08/16 08:12:50;;;;;;;1.67;1.48;;;21.30;64.10;;;;;;4920060;29;20040;-76
2021/08/16 08:15:17;;;;;;;1.92;1.60;;;21.20;64.00;;;;;;4919599;29;20028;-76
2021/08/16 08:17:43;;;;;;;1.90;1.42;;;21.30;64.10;;;;;;4904419;29;20032;-77
2021/08/16 08:20:09;;;;;;;2.90;1.85;;;21.30;64.20;;;;;;4904241;29;20040;-77
2021/08/16 08:22:35;;;;;;;2.63;1.48;;;21.20;64.20;;;;;;4920824;29;20111;-77
2021/08/16 08:25:01;;;;;;;2.60;1.40;;;21.30;64.30;;;;;;4919327;29;20581;-76
2021/08/16 08:27:27;;;;;;;2.25;1.50;;;21.20;64.30;;;;;;4903468;29;20171;-77
2021/08/16 08:29:53;;;;;;;1.45;1.20;;;21.20;64.30;;;;;;4919485;29;20126;-76
2021/08/16 08:32:19;;;;;;;2.35;1.40;;;21.30;64.40;;;;;;4903655;29;20036;-75
2021/08/16 08:34:45;;;;;;;2.05;1.30;;;21.30;64.40;;;;;;4903342;29;20032;-76
2021/08/16 08:37:13;;;;;;;1.63;1.15;;;21.30;64.40;;;;;;4919320;29;20032;-76
2021/08/16 08:39:40;;;;;;;2.60;1.30;;;21.30;64.40;;;;;;4904729;29;20032;-76
2021/08/16 08:42:06;;;;;;;1.17;1.02;;;21.30;64.50;;;;;;4903699;29;20028;-77
2021/08/16 08:44:33;;;;;;;1.73;1.10;;;21.30;64.40;;;;;;4919531;29;20028;-77
2021/08/16 08:47:00;;;;;;;1.30;1.20;;;21.30;64.40;;;;;;4919471;29;20524;-77
2021/08/16 08:49:26;;;;;;;1.70;1.27;;;21.30;64.50;;;;;;4919308;29;20040;-78
2021/08/16 08:51:52;;;;;;;1.95;1.10;;;21.20;64.40;;;;;;4903320;29;20059;-77
2021/08/16 08:54:19;;;;;;;2.10;1.33;;;21.20;64.40;;;;;;4919033;29;20114;-77
2021/08/16 08:56:46;;;;;;;1.77;1.10;;;21.20;64.40;;;;;;4903476;29;20033;-77
2021/08/16 08:59:12;;;;;;;1.10;0.98;;;21.30;64.50;;;;;;4919852;29;20042;-77
2021/08/16 09:01:56;;;;;;;2.03;1.10;;;21.20;64.50;;;;;;4918855;29;20468;-77
2021/08/16 09:04:23;;;;;;;1.30;1.20;;;21.20;64.60;;;;;;4918389;29;20032;-77
2021/08/16 09:06:49;;;;;;;1.50;1.10;;;21.20;64.50;;;;;;4903413;29;20361;-78
2021/08/16 09:09:16;;;;;;;1.13;1.00;;;21.20;64.50;;;;;;4920221;29;20036;-77
2021/08/16 09:11:53;;;;;;;1.77;1.20;;;21.20;64.50;;;;;;4919088;29;20060;-78
2021/08/16 09:14:20;;;;;;;1.00;0.90;;;21.20;64.70;;;;;;4918457;29;20072;-76
2021/08/16 09:16:47;;;;;;;2.10;1.10;;;21.20;64.60;;;;;;4920152;29;20035;-76
2021/08/16 09:19:23;;;;;;;1.50;1.13;;;21.30;65.30;;;;;;4903269;29;20071;-76
2021/08/16 09:24:30;;;;;;;1.20;1.10;;;21.30;64.70;;;;;;4918542;29;20135;-75
2021/08/16 09:27:06;;;;;;;1.67;1.00;;;21.30;64.80;;;;;;4902675;29;20383;-77
2021/08/16 09:29:31;;;;;;;2.15;1.30;;;21.30;64.80;;;;;;4902403;29;20044;-76
2021/08/16 09:32:05;;;;;;;1.52;1.13;;;21.30;64.70;;;;;;4918279;29;20452;-76
2021/08/16 09:34:37;;;;;;;1.05;0.93;;;21.30;64.80;;;;;;4902547;29;20046;-77
2021/08/16 09:37:29;;;;;;;1.35;1.00;;;21.30;64.80;;;;;;4919800;29;20039;-76
2021/08/16 09:40:20;;;;;;;1.13;0.90;;;21.30;64.90;;;;;;4900683;29;20063;-76
2021/08/16 09:42:50;;;;;;;1.05;1.02;;;21.30;64.80;;;;;;4903185;29;20119;-76
2021/08/16 09:45:31;;;;;;;1.90;1.20;;;21.30;64.70;;;;;;4919013;29;20474;-77
2021/08/16 09:47:59;;;;;;;2.08;1.08;;;21.30;64.90;;;;;;4917942;29;20063;-76
2021/08/16 09:50:38;;;;;;;1.73;1.10;;;21.30;64.70;;;;;;4902525;29;20028;-75
2021/08/16 09:53:09;;;;;;;1.20;1.10;;;21.30;64.90;;;;;;4918831;29;20028;-76
2021/08/16 09:55:40;;;;;;;1.50;1.20;;;21.30;64.80;;;;;;4902069;29;20060;-75
2021/08/16 09:58:13;;;;;;;1.95;1.30;;;21.30;64.70;;;;;;4917964;29;20043;-76
2021/08/16 10:00:43;;;;;;;2.08;1.30;;;21.30;64.80;;;;;;4902449;29;20051;-76
2021/08/16 10:03:11;;;;;;;1.50;1.20;;;21.40;64.80;;;;;;4902082;29;20036;-75
2021/08/16 10:05:39;;;;;;;2.35;1.25;;;21.30;64.70;;;;;;4917857;29;20029;-76
2021/08/16 10:08:06;;;;;;;1.83;1.20;;;21.30;64.70;;;;;;4917214;29;20040;-76
2021/08/16 10:10:34;;;;;;;2.00;1.30;;;21.40;64.80;;;;;;4933403;29;20039;-76
2021/08/16 10:13:01;;;;;;;2.00;1.17;;;21.40;64.80;;;;;;4901519;29;20036;-75
2021/08/16 10:15:29;;;;;;;2.53;1.40;;;21.40;64.70;;;;;;4916989;29;20032;-76
2021/08/16 10:17:55;;;;;;;1.33;1.10;;;21.40;64.80;;;;;;4901465;29;20036;-77
2021/08/16 10:20:25;;;;;;;1.50;1.33;;;21.40;64.70;;;;;;4917881;29;20123;-75
2021/08/16 10:22:51;;;;;;;2.58;1.58;;;21.40;64.70;;;;;;4918465;29;20039;-75
2021/08/16 10:25:18;;;;;;;3.10;1.40;;;21.40;64.70;;;;;;4902203;29;20043;-76
2021/08/16 10:27:45;;;;;;;2.42;1.40;;;21.40;64.70;;;;;;4918628;29;20039;-76
2021/08/16 10:30:15;;;;;;;1.42;1.30;;;21.40;64.70;;;;;;4886051;29;20071;-76
2021/08/16 10:32:41;;;;;;;3.28;1.52;;;21.40;64.70;;;;;;4917072;29;20115;-75
2021/08/16 10:35:13;;;;;;;2.30;1.45;;;21.40;64.70;;;;;;4901342;29;20047;-75
2021/08/16 10:37:41;;;;;;;2.17;1.40;;;21.50;65.40;;;;;;4901646;29;20032;-76
2021/08/16 10:40:43;;;;;;;1.50;1.10;;;21.50;64.70;;;;;;4901056;29;20036;-77
2021/08/16 10:43:10;;;;;;;1.20;1.10;;;21.50;64.90;;;;;;4917912;29;20032;-75
2021/08/16 10:45:50;;;;;;;2.50;1.70;;;21.50;64.60;;;;;;4917985;29;20115;-76
2021/08/16 10:48:20;;;;;;;3.47;1.70;;;21.50;64.70;;;;;;4901905;29;20497;-76
2021/08/16 10:50:46;;;;;;;2.85;1.50;;;21.50;64.60;;;;;;4900768;29;20039;-76
2021/08/16 10:53:12;;;;;;;2.40;1.50;;;21.60;64.50;;;;;;4901009;29;20029;-76
2021/08/16 10:55:40;;;;;;;4.32;1.52;;;21.70;64.60;;;;;;4916772;29;20127;-76
2021/08/16 10:58:10;;;;;;;2.58;1.40;;;21.70;64.50;;;;;;4932773;29;20476;-76
2021/08/16 11:00:38;;;;;;;2.63;1.50;;;21.80;64.50;;;;;;4901241;29;20032;-75
2021/08/16 11:03:04;;;;;;;2.72;1.67;;;21.80;64.40;;;;;;4916774;29;20047;-75
2021/08/16 11:05:32;;;;;;;2.88;1.70;;;21.80;64.30;;;;;;4885412;29;20417;-76
2021/08/16 11:08:02;;;;;;;2.58;1.75;;;21.90;64.30;;;;;;4917436;29;20087;-76
2021/08/16 11:10:43;;;;;;;2.65;1.58;;;21.90;64.20;;;;;;4901110;29;20036;-75
2021/08/16 11:13:17;;;;;;;2.83;1.65;;;22.00;64.20;;;;;;4916847;29;20040;-75
2021/08/16 11:15:43;;;;;;;;;;;22.00;64.10;;;;;;4917217;29;20036;-76
2021/08/16 11:18:15;;;;;;;3.58;1.77;;;22.10;63.90;;;;;;4932614;29;19935;-77
2021/08/16 11:20:41;;;;;;;3.17;1.85;;;22.10;63.80;;;;;;4932253;29;20039;-76
2021/08/16 11:23:08;;;;;;;5.68;1.98;;;22.10;63.80;;;;;;4932483;29;20032;-75
2021/08/16 11:25:33;;;;;;;3.25;2.00;;;22.10;63.80;;;;;;4917371;29;20048;-76
2021/08/16 11:28:01;;;;;;;3.60;1.95;;;22.20;63.80;;;;;;4901033;29;20048;-76
2021/08/16 11:30:29;;;;;;;3.22;1.95;;;22.20;63.70;;;;;;4900578;29;20051;-75
2021/08/16 11:32:55;;;;;;;2.75;2.00;;;22.20;63.70;;;;;;4917576;29;20119;-76
2021/08/16 11:35:25;;;;;;;3.15;1.83;;;22.30;63.60;;;;;;4900514;29;20139;-75
2021/08/16 11:37:51;;;;;;;2.60;1.58;;;22.30;63.60;;;;;;4916056;29;20032;-75
2021/08/16 11:40:17;;;;;;;3.28;2.00;;;22.30;63.60;;;;;;4916686;29;20046;-75
2021/08/16 11:42:42;;;;;;;3.55;1.80;;;22.30;63.50;;;;;;4917173;29;20111;-76
2021/08/16 11:45:11;;;;;;;3.58;1.90;;;22.30;63.40;;;;;;4916098;29;20489;-76
2021/08/16 11:47:43;;;;;;;2.53;1.83;;;22.40;63.30;;;;;;4916748;29;20114;-75
2021/08/16 11:50:10;;;;;;;2.40;1.70;;;22.40;63.30;;;;;;4917515;29;20127;-76
2021/08/16 11:52:37;;;;;;;2.45;1.60;;;22.40;63.10;;;;;;4917276;29;20111;-75
2021/08/16 11:55:07;;;;;;;3.35;1.60;;;22.40;63.10;;;;;;4900806;29;20044;-75
2021/08/16 11:57:34;;;;;;;1.92;1.50;;;22.40;63.10;;;;;;4917067;29;20035;-76
2021/08/16 12:00:00;;;;;;;2.63;1.63;;;22.40;63.00;;;;;;4900350;29;20047;-76
2021/08/16 12:02:33;;;;;;;3.05;1.77;;;22.50;63.10;;;;;;4916025;29;20126;-76
2021/08/16 12:04:59;;;;;;;2.53;1.70;;;22.50;63.10;;;;;;4917356;29;20043;-76
2021/08/16 12:07:26;;;;;;;3.10;1.70;;;22.50;63.10;;;;;;4916321;29;20032;-75
2021/08/16 12:09:53;;;;;;;2.88;1.92;;;22.40;62.90;;;;;;4916311;29;20041;-76
2021/08/16 12:12:26;;;;;;;2.78;1.80;;;22.40;62.90;;;;;;4916252;29;20044;-76
2021/08/16 12:15:18;;;;;;;2.47;1.60;;;22.40;62.90;;;;;;4916239;29;20039;-75
2021/08/16 12:17:44;;;;;;;2.83;1.65;;;22.40;62.90;;;;;;4916549;29;20080;-76
2021/08/16 12:20:16;;;;;;;2.30;1.40;;;22.40;62.80;;;;;;4916391;29;20044;-76
2021/08/16 12:22:53;;;;;;;2.80;1.60;;;22.40;62.80;;;;;;4915777;29;20028;-77
2021/08/16 12:25:21;;;;;;;2.55;1.45;;;22.40;62.80;;;;;;4917078;29;20083;-77
2021/08/16 12:28:13;;;;;;;1.95;1.42;;;22.40;62.80;;;;;;4900613;29;20447;-76
2021/08/16 12:30:38;;;;;;;2.75;1.70;;;22.40;62.90;;;;;;4914600;29;20491;-77
2021/08/16 12:33:13;;;;;;;2.97;1.70;;;22.40;62.70;;;;;;4900197;29;20040;-77
2021/08/16 12:35:40;;;;;;;2.88;1.50;;;22.40;62.80;;;;;;4900268;29;20051;-77
2021/08/16 12:38:07;;;;;;;2.03;1.30;;;22.40;62.60;;;;;;4917301;29;20032;-76
2021/08/16 12:40:34;;;;;;;2.22;1.48;;;22.40;62.60;;;;;;4919942;29;20088;-78
2021/08/16 12:43:03;;;;;;;2.08;1.40;;;22.30;62.50;;;;;;4919398;29;20032;-77
2021/08/16 12:45:29;;;;;;;3.28;1.55;;;22.30;62.40;;;;;;4935027;29;20426;-77
2021/08/16 12:47:59;;;;;;;3.20;1.40;;;22.30;62.40;;;;;;4918977;29;20530;-77
2021/08/16 12:50:26;;;;;;;3.13;1.60;;;22.30;62.40;;;;;;4904281;29;20036;-76